Time;durP1;ratioP1;P1;durP2;ratioP2;P2;SDS_P1;SDS_P2;PMS_P1;PMS_P2;Temp;Humidity;BMP_temperature;BMP_pressure;BME280_temperature;BME280_humidity;BME280_pressure;Samples;Min_cycle;Max_cycle;Signal;HPM_P1;HPM_P2
2022/07/30 00:01:19;;;;;;;2.42;2.30;;;;;;;;;;5137984;27;20222;-71
2022/07/30 00:03:46;;;;;;;2.55;2.35;;;;;;;;;;5139714;27;20670;-71
2022/07/30 00:06:13;;;;;;;2.97;2.78;;;;;;;;;;5140160;27;20226;-71
2022/07/30 00:08:41;;;;;;;2.28;2.17;;;;;;;;;;5140721;27;20291;-71
2022/07/30 00:11:10;;;;;;;2.53;2.33;;;;;;;;;;5126396;27;20223;-72
2022/07/30 00:13:38;;;;;;;2.38;2.22;;;;;;;;;;5105603;28;20218;-71
2022/07/30 00:16:06;;;;;;;2.35;2.25;;;;;;;;;;5128186;27;20234;-71
2022/07/30 00:18:35;;;;;;;2.58;2.20;;;;;;;;;;5139991;27;20234;-72
2022/07/30 00:21:02;;;;;;;2.70;2.50;;;;;;;;;;5139044;27;20286;-71
2022/07/30 00:23:31;;;;;;;2.25;2.15;;;;;;;;;;5119608;28;20626;-72
2022/07/30 00:25:58;;;;;;;2.03;1.92;;;;;;;;;;5119393;27;20227;-71
2022/07/30 00:28:25;;;;;;;2.53;2.40;;;;;;;;;;5119694;28;20227;-71
2022/07/30 00:30:53;;;;;;;2.30;2.20;;;;;;;;;;5136209;27;20286;-72
2022/07/30 00:33:20;;;;;;;2.22;2.13;;;;;;;;;;5140371;27;20222;-71
2022/07/30 00:35:49;;;;;;;2.60;2.50;;;;;;;;;;5139652;27;20343;-72
2022/07/30 00:38:16;;;;;;;2.53;2.40;;;;;;;;;;5139043;27;20674;-72
2022/07/30 00:40:43;;;;;;;2.40;2.30;;;;;;;;;;5139504;27;20237;-71
2022/07/30 00:43:15;;;;;;;2.10;2.00;;;;;;;;;;5137395;27;20218;-71
2022/07/30 00:45:42;;;;;;;2.13;2.03;;;;;;;;;;5133299;27;20487;-71
2022/07/30 00:48:10;;;;;;;2.70;2.50;;;;;;;;;;5129686;27;20287;-71
2022/07/30 00:50:37;;;;;;;2.33;2.22;;;;;;;;;;5139363;27;20283;-70
2022/07/30 00:53:06;;;;;;;2.60;2.40;;;;;;;;;;5139061;27;20283;-70
2022/07/30 00:55:34;;;;;;;2.65;2.45;;;;;;;;;;5140137;27;20306;-71
2022/07/30 00:58:02;;;;;;;2.65;2.45;;;;;;;;;;5138828;27;20230;-71
2022/07/30 01:00:29;;;;;;;2.40;2.30;;;;;;;;;;5139728;27;20234;-71
2022/07/30 01:02:56;;;;;;;2.33;2.13;;;;;;;;;;5138496;27;20672;-71
2022/07/30 01:05:24;;;;;;;2.60;2.40;;;;;;;;;;5139528;27;20233;-71
2022/07/30 01:07:51;;;;;;;2.35;2.25;;;;;;;;;;5138475;27;20226;-71
2022/07/30 01:10:20;;;;;;;2.42;2.30;;;;;;;;;;5137542;27;20225;-71
2022/07/30 01:12:47;;;;;;;2.50;2.40;;;;;;;;;;5138587;27;20249;-71
2022/07/30 01:15:15;;;;;;;2.55;2.40;;;;;;;;;;5138676;27;20242;-71
2022/07/30 01:17:43;;;;;;;2.40;2.30;;;;;;;;;;5138541;27;20230;-71
2022/07/30 01:20:14;;;;;;;2.70;2.50;;;;;;;;;;5138344;27;20229;-72
2022/07/30 01:22:46;;;;;;;2.40;2.30;;;;;;;;;;5138461;27;20222;-71
2022/07/30 01:25:18;;;;;;;2.53;2.33;;;;;;;;;;5138034;27;20225;-71
2022/07/30 01:27:48;;;;;;;2.70;2.50;;;;;;;;;;5137493;27;20222;-71
2022/07/30 01:30:18;;;;;;;2.80;2.60;;;;;;;;;;5138536;27;20520;-71
2022/07/30 01:32:47;;;;;;;2.40;2.30;;;;;;;;;;5138711;27;20618;-71
2022/07/30 01:35:15;;;;;;;2.50;2.40;;;;;;;;;;5119117;27;20237;-71
2022/07/30 01:37:45;;;;;;;2.45;2.25;;;;;;;;;;5128728;27;20294;-71
2022/07/30 01:40:13;;;;;;;2.50;2.40;;;;;;;;;;5136255;27;20313;-71
2022/07/30 01:42:41;;;;;;;2.65;2.45;;;;;;;;;;5138167;27;20618;-71
2022/07/30 01:45:10;;;;;;;2.40;2.25;;;;;;;;;;5138660;27;20229;-70
2022/07/30 01:47:39;;;;;;;2.33;2.22;;;;;;;;;;5137276;27;20230;-71
2022/07/30 01:50:08;;;;;;;2.50;2.40;;;;;;;;;;5124145;27;20222;-71
2022/07/30 01:52:38;;;;;;;2.42;2.33;;;;;;;;;;5118554;27;20260;-71
2022/07/30 01:55:06;;;;;;;2.50;2.40;;;;;;;;;;5117924;28;20227;-70
2022/07/30 01:57:36;;;;;;;2.30;2.20;;;;;;;;;;5117128;28;20269;-71
2022/07/30 02:00:05;;;;;;;2.30;2.15;;;;;;;;;;5117985;28;20237;-73
2022/07/30 02:02:35;;;;;;;2.30;2.20;;;;;;;;;;5097377;28;20265;-71
2022/07/30 02:05:02;;;;;;;2.20;2.10;;;;;;;;;;5097629;28;20292;-71
2022/07/30 02:10:08;;;;;;;2.20;2.00;;;;;;;;;;5278641;22;20274;-70
2022/07/30 02:12:37;;;;;;;2.40;2.30;;;;;;;;;;5096450;28;20520;-71
2022/07/30 02:15:09;;;;;;;2.45;2.25;;;;;;;;;;5096397;28;20235;-71
2022/07/30 02:17:39;;;;;;;2.63;2.42;;;;;;;;;;5095821;28;20235;-70
2022/07/30 02:20:08;;;;;;;2.28;2.17;;;;;;;;;;5097097;28;20552;-71
2022/07/30 02:22:37;;;;;;;2.47;2.30;;;;;;;;;;5095834;28;20627;-71
2022/07/30 02:25:05;;;;;;;2.28;2.17;;;;;;;;;;5097260;28;20273;-71
2022/07/30 02:27:34;;;;;;;2.20;2.10;;;;;;;;;;5095444;28;20262;-71
2022/07/30 02:30:02;;;;;;;2.13;2.03;;;;;;;;;;5096227;28;20234;-71
2022/07/30 02:32:31;;;;;;;2.20;2.10;;;;;;;;;;5096234;28;20226;-70
2022/07/30 02:35:02;;;;;;;2.58;2.40;;;;;;;;;;5095508;28;20223;-71
2022/07/30 02:37:31;;;;;;;2.10;2.00;;;;;;;;;;5095514;28;20227;-71
2022/07/30 02:39:59;;;;;;;2.40;2.30;;;;;;;;;;5095780;28;20220;-70
2022/07/30 02:42:27;;;;;;;2.20;2.10;;;;;;;;;;5095991;28;20232;-71
2022/07/30 02:44:55;;;;;;;2.20;2.10;;;;;;;;;;5096514;28;20235;-71
2022/07/30 02:47:24;;;;;;;2.45;2.35;;;;;;;;;;5095612;28;20297;-71
2022/07/30 02:49:51;;;;;;;2.45;2.30;;;;;;;;;;5096632;28;20298;-71
2022/07/30 02:52:21;;;;;;;2.00;1.90;;;;;;;;;;5096105;28;20326;-71
2022/07/30 02:54:50;;;;;;;2.30;2.20;;;;;;;;;;5096678;28;20230;-70
2022/07/30 02:57:18;;;;;;;2.60;2.40;;;;;;;;;;5096264;28;20280;-71
2022/07/30 02:59:47;;;;;;;2.28;2.17;;;;;;;;;;5097084;28;20281;-70
2022/07/30 03:02:14;;;;;;;2.35;2.25;;;;;;;;;;5096328;28;20277;-71
2022/07/30 03:04:42;;;;;;;2.20;2.10;;;;;;;;;;5096529;28;20612;-70
2022/07/30 03:07:10;;;;;;;2.20;2.10;;;;;;;;;;5096102;28;20219;-70
2022/07/30 03:09:39;;;;;;;2.30;2.20;;;;;;;;;;5095155;28;20247;-70
2022/07/30 03:12:08;;;;;;;2.30;2.20;;;;;;;;;;5096469;28;20257;-71
2022/07/30 03:14:35;;;;;;;2.30;2.10;;;;;;;;;;5096413;28;20536;-71
2022/07/30 03:17:03;;;;;;;2.10;2.00;;;;;;;;;;5096214;28;20228;-71
2022/07/30 03:19:33;;;;;;;2.45;2.35;;;;;;;;;;5096916;28;20511;-71
2022/07/30 03:22:02;;;;;;;2.22;2.13;;;;;;;;;;5097008;28;20195;-70
2022/07/30 03:24:30;;;;;;;2.13;2.03;;;;;;;;;;5096768;28;20799;-71
2022/07/30 03:27:02;;;;;;;2.28;2.15;;;;;;;;;;5096599;28;20192;-71
2022/07/30 03:29:30;;;;;;;2.10;2.00;;;;;;;;;;5097070;28;20314;-71
2022/07/30 03:31:58;;;;;;;2.03;1.92;;;;;;;;;;5096586;28;20248;-71
2022/07/30 03:34:25;;;;;;;2.42;2.25;;;;;;;;;;5096509;28;20265;-71
2022/07/30 03:36:53;;;;;;;2.28;2.17;;;;;;;;;;5096092;28;20224;-70
2022/07/30 03:39:21;;;;;;;2.38;2.28;;;;;;;;;;5098771;28;20277;-70
2022/07/30 03:41:49;;;;;;;2.22;2.13;;;;;;;;;;5100187;28;20207;-71
2022/07/30 03:44:17;;;;;;;2.45;2.35;;;;;;;;;;5100791;28;20203;-70
2022/07/30 03:46:45;;;;;;;2.20;2.10;;;;;;;;;;5099698;28;20200;-71
2022/07/30 03:49:13;;;;;;;2.40;2.20;;;;;;;;;;5100369;28;20273;-71
2022/07/30 03:51:41;;;;;;;2.05;1.95;;;;;;;;;;5100030;28;20263;-70
2022/07/30 03:54:11;;;;;;;2.15;2.05;;;;;;;;;;5100346;28;20207;-71
2022/07/30 03:56:39;;;;;;;2.35;2.15;;;;;;;;;;5100210;28;20220;-71
2022/07/30 03:59:06;;;;;;;2.40;2.30;;;;;;;;;;5100137;28;20211;-70
2022/07/30 04:01:35;;;;;;;2.42;2.22;;;;;;;;;;5099882;28;20285;-70
2022/07/30 04:04:06;;;;;;;2.00;1.90;;;;;;;;;;5099299;28;20207;-71
2022/07/30 04:06:38;;;;;;;2.25;2.10;;;;;;;;;;5099933;28;20203;-70
2022/07/30 04:09:06;;;;;;;2.10;2.00;;;;;;;;;;5097013;28;20219;-70
2022/07/30 04:11:33;;;;;;;2.10;2.00;;;;;;;;;;5098750;28;20287;-71
2022/07/30 04:14:01;;;;;;;2.13;2.00;;;;;;;;;;5099629;28;20269;-71
2022/07/30 04:16:31;;;;;;;2.00;1.90;;;;;;;;;;5099471;28;20288;-70
2022/07/30 04:19:00;;;;;;;2.30;2.10;;;;;;;;;;5099525;28;20245;-71
2022/07/30 04:21:28;;;;;;;1.85;1.75;;;;;;;;;;5099895;28;20204;-71
2022/07/30 04:23:55;;;;;;;2.22;2.13;;;;;;;;;;5099731;28;20572;-70
2022/07/30 04:26:23;;;;;;;1.80;1.70;;;;;;;;;;5099396;28;20295;-70
2022/07/30 04:28:50;;;;;;;2.05;1.95;;;;;;;;;;5099787;28;20284;-70
2022/07/30 04:31:19;;;;;;;2.00;1.90;;;;;;;;;;5098464;28;20511;-70
2022/07/30 04:33:47;;;;;;;2.10;2.00;;;;;;;;;;5099224;28;20204;-71
2022/07/30 04:36:15;;;;;;;2.15;2.05;;;;;;;;;;5099094;28;20289;-71
2022/07/30 04:38:43;;;;;;;2.20;2.10;;;;;;;;;;5099024;28;20208;-70
2022/07/30 04:41:10;;;;;;;2.10;2.00;;;;;;;;;;5098628;28;20261;-71
2022/07/30 04:43:37;;;;;;;1.90;1.80;;;;;;;;;;5098214;28;20207;-71
2022/07/30 04:46:05;;;;;;;2.17;1.98;;;;;;;;;;5099112;28;20219;-70
2022/07/30 04:48:32;;;;;;;2.00;1.90;;;;;;;;;;5098749;28;20200;-71
2022/07/30 04:51:01;;;;;;;2.03;1.92;;;;;;;;;;5098413;28;20199;-72
2022/07/30 04:53:30;;;;;;;1.90;1.80;;;;;;;;;;5098219;28;20280;-71
2022/07/30 04:55:59;;;;;;;1.92;1.83;;;;;;;;;;5099035;28;20285;-71
2022/07/30 04:58:28;;;;;;;2.00;1.90;;;;;;;;;;5098483;28;20212;-71
2022/07/30 05:00:55;;;;;;;2.20;2.10;;;;;;;;;;5098993;28;20225;-71
2022/07/30 05:03:24;;;;;;;1.90;1.80;;;;;;;;;;5078786;28;20212;-70
2022/07/30 05:05:51;;;;;;;1.80;1.70;;;;;;;;;;5089164;28;20613;-71
2022/07/30 05:08:19;;;;;;;1.80;1.70;;;;;;;;;;5097976;28;20203;-71
2022/07/30 05:10:47;;;;;;;2.00;1.90;;;;;;;;;;5098165;28;20228;-71
2022/07/30 05:13:16;;;;;;;1.77;1.67;;;;;;;;;;5098108;28;20576;-71
2022/07/30 05:15:44;;;;;;;1.80;1.70;;;;;;;;;;5098814;28;20305;-71
2022/07/30 05:18:11;;;;;;;2.03;1.92;;;;;;;;;;5097966;28;20266;-71
2022/07/30 05:20:39;;;;;;;2.10;2.00;;;;;;;;;;5098342;28;20219;-71
2022/07/30 05:23:07;;;;;;;2.05;1.95;;;;;;;;;;5097849;28;20604;-72
2022/07/30 05:25:34;;;;;;;2.05;1.95;;;;;;;;;;5098127;28;20262;-70
2022/07/30 05:28:03;;;;;;;2.00;1.90;;;;;;;;;;5098169;28;20195;-70
2022/07/30 05:30:30;;;;;;;2.10;1.92;;;;;;;;;;5098620;28;20204;-71
2022/07/30 05:32:57;;;;;;;1.90;1.80;;;;;;;;;;5098022;28;20591;-71
2022/07/30 05:35:25;;;;;;;1.85;1.75;;;;;;;;;;5098583;28;20204;-71
2022/07/30 05:37:52;;;;;;;2.00;1.90;;;;;;;;;;5097471;28;20226;-71
2022/07/30 05:40:19;;;;;;;2.00;1.90;;;;;;;;;;5097688;28;20211;-70
2022/07/30 05:42:47;;;;;;;2.20;2.00;;;;;;;;;;5097494;28;20576;-70
2022/07/30 05:45:15;;;;;;;2.00;1.90;;;;;;;;;;5097274;28;20439;-71
2022/07/30 05:47:42;;;;;;;2.25;2.15;;;;;;;;;;5097321;28;20203;-71
2022/07/30 05:50:11;;;;;;;2.10;2.00;;;;;;;;;;5097194;28;20588;-71
2022/07/30 05:52:38;;;;;;;1.83;1.73;;;;;;;;;;5097685;28;20199;-70
2022/07/30 05:55:07;;;;;;;1.95;1.85;;;;;;;;;;5097676;28;20196;-71
2022/07/30 05:57:35;;;;;;;2.10;1.90;;;;;;;;;;5097319;28;20219;-71
2022/07/30 06:00:03;;;;;;;2.95;1.85;;;;;;;;;;5097735;28;20208;-70
2022/07/30 06:02:32;;;;;;;2.20;2.10;;;;;;;;;;5096277;28;20214;-71
2022/07/30 06:04:59;;;;;;;2.20;2.10;;;;;;;;;;5097221;28;20340;-71
2022/07/30 06:07:27;;;;;;;2.25;2.15;;;;;;;;;;5097032;28;20579;-70
2022/07/30 06:09:58;;;;;;;2.30;1.70;;;;;;;;;;5096484;28;20309;-71
2022/07/30 06:12:26;;;;;;;2.08;1.98;;;;;;;;;;5096569;28;20207;-71
2022/07/30 06:14:53;;;;;;;2.17;2.08;;;;;;;;;;5096147;28;20203;-70
2022/07/30 06:17:20;;;;;;;2.10;2.00;;;;;;;;;;5096614;28;20754;-71
2022/07/30 06:19:49;;;;;;;1.90;1.80;;;;;;;;;;5096994;28;20203;-71
2022/07/30 06:22:17;;;;;;;1.83;1.73;;;;;;;;;;5096665;28;20204;-71
2022/07/30 06:24:44;;;;;;;2.13;2.03;;;;;;;;;;5096753;28;20200;-71
2022/07/30 06:27:11;;;;;;;2.00;1.90;;;;;;;;;;5097030;28;20284;-71
2022/07/30 06:29:39;;;;;;;1.90;1.80;;;;;;;;;;5096530;28;20355;-71
2022/07/30 06:32:06;;;;;;;2.00;1.90;;;;;;;;;;5096813;28;20788;-71
2022/07/30 06:34:34;;;;;;;1.90;1.80;;;;;;;;;;5097291;28;20215;-71
2022/07/30 06:37:03;;;;;;;2.13;1.92;;;;;;;;;;5096477;28;20302;-71
2022/07/30 06:39:30;;;;;;;2.10;2.00;;;;;;;;;;5096587;28;20547;-71
2022/07/30 06:41:58;;;;;;;1.80;1.70;;;;;;;;;;5096747;28;20204;-71
2022/07/30 06:44:25;;;;;;;2.00;1.90;;;;;;;;;;5097025;28;20200;-71
2022/07/30 06:46:52;;;;;;;1.98;1.88;;;;;;;;;;5096099;28;21368;-71
2022/07/30 06:49:19;;;;;;;2.00;1.90;;;;;;;;;;5096578;28;20226;-71
2022/07/30 06:51:47;;;;;;;2.03;1.92;;;;;;;;;;5095733;28;20214;-71
2022/07/30 06:54:16;;;;;;;2.17;2.08;;;;;;;;;;5096528;28;20203;-71
2022/07/30 06:56:43;;;;;;;2.00;1.90;;;;;;;;;;5096334;28;20196;-71
2022/07/30 06:59:10;;;;;;;2.17;2.08;;;;;;;;;;5096629;28;20207;-71
2022/07/30 07:01:38;;;;;;;2.10;2.00;;;;;;;;;;5096615;28;20677;-71
2022/07/30 07:04:05;;;;;;;2.00;1.90;;;;;;;;;;5096134;28;20265;-71
2022/07/30 07:06:33;;;;;;;2.25;2.00;;;;;;;;;;5096740;28;20225;-71
2022/07/30 07:09:00;;;;;;;1.85;1.75;;;;;;;;;;5095706;28;20700;-70
2022/07/30 07:11:29;;;;;;;2.15;2.05;;;;;;;;;;5094861;28;20576;-70
2022/07/30 07:13:56;;;;;;;2.00;1.90;;;;;;;;;;5098239;28;20237;-70
2022/07/30 07:16:24;;;;;;;2.05;1.95;;;;;;;;;;5099286;28;20200;-70
2022/07/30 07:18:52;;;;;;;2.33;2.22;;;;;;;;;;5090201;28;20698;-70
2022/07/30 07:21:19;;;;;;;2.20;2.10;;;;;;;;;;5099640;28;20336;-70
2022/07/30 07:23:47;;;;;;;2.17;2.08;;;;;;;;;;5100019;28;20707;-70
2022/07/30 07:26:14;;;;;;;1.90;1.80;;;;;;;;;;5099797;28;20576;-70
2022/07/30 07:28:43;;;;;;;1.98;1.88;;;;;;;;;;5099281;28;20280;-70
2022/07/30 07:31:11;;;;;;;2.40;2.30;;;;;;;;;;5099683;28;20207;-70
2022/07/30 07:33:39;;;;;;;2.10;2.00;;;;;;;;;;5098131;28;20564;-70
2022/07/30 07:36:06;;;;;;;2.50;2.30;;;;;;;;;;5099625;28;20269;-70
2022/07/30 07:38:36;;;;;;;2.20;2.10;;;;;;;;;;5098916;28;20231;-70
2022/07/30 07:41:06;;;;;;;2.28;2.05;;;;;;;;;;5098958;28;20203;-70
2022/07/30 07:43:34;;;;;;;2.10;2.00;;;;;;;;;;5098191;28;20509;-70
2022/07/30 07:46:03;;;;;;;2.40;2.25;;;;;;;;;;5098576;28;20583;-70
2022/07/30 07:48:30;;;;;;;2.00;1.90;;;;;;;;;;5098580;28;20596;-70
2022/07/30 07:50:58;;;;;;;2.40;2.20;;;;;;;;;;5098761;28;20207;-70
2022/07/30 07:53:26;;;;;;;2.45;2.25;;;;;;;;;;5097739;28;20294;-70
2022/07/30 07:55:53;;;;;;;2.00;1.90;;;;;;;;;;5099352;28;20679;-70
2022/07/30 07:58:21;;;;;;;2.42;2.22;;;;;;;;;;5098432;28;20254;-70
2022/07/30 08:00:48;;;;;;;2.22;2.13;;;;;;;;;;5098768;28;20576;-70
2022/07/30 08:03:16;;;;;;;1.90;1.80;;;;;;;;;;5097930;28;20505;-70
2022/07/30 08:05:44;;;;;;;2.03;1.92;;;;;;;;;;5098846;28;20272;-70
2022/07/30 08:08:11;;;;;;;2.40;2.30;;;;;;;;;;5097241;28;20203;-70
2022/07/30 08:10:38;;;;;;;2.17;2.08;;;;;;;;;;5098129;28;20242;-70
2022/07/30 08:13:06;;;;;;;2.50;2.30;;;;;;;;;;5097424;28;20261;-70
2022/07/30 08:15:33;;;;;;;2.08;1.98;;;;;;;;;;5097155;28;20298;-70
2022/07/30 08:18:00;;;;;;;2.30;2.20;;;;;;;;;;5097961;28;20219;-70
2022/07/30 08:20:29;;;;;;;2.20;2.10;;;;;;;;;;5097368;28;20207;-70
2022/07/30 08:22:56;;;;;;;2.83;2.50;;;;;;;;;;5097982;28;20200;-70
2022/07/30 08:25:24;;;;;;;2.40;2.30;;;;;;;;;;5098064;28;20203;-70
2022/07/30 08:27:51;;;;;;;2.30;2.20;;;;;;;;;;5097957;28;20203;-70
2022/07/30 08:30:19;;;;;;;2.42;2.33;;;;;;;;;;5097702;28;20203;-70
2022/07/30 08:32:46;;;;;;;2.50;2.30;;;;;;;;;;5097284;28;20464;-70
2022/07/30 08:35:14;;;;;;;2.30;2.20;;;;;;;;;;5097019;28;20576;-70
2022/07/30 08:37:42;;;;;;;2.30;2.20;;;;;;;;;;5095896;28;20219;-70
2022/07/30 08:40:11;;;;;;;2.30;2.20;;;;;;;;;;5097469;28;20211;-70
2022/07/30 08:42:38;;;;;;;2.25;2.15;;;;;;;;;;5096549;28;20202;-70
2022/07/30 08:45:07;;;;;;;2.75;2.58;;;;;;;;;;5095831;28;20253;-70
2022/07/30 08:47:34;;;;;;;2.38;2.17;;;;;;;;;;5097371;28;20200;-70
2022/07/30 08:50:04;;;;;;;2.50;2.30;;;;;;;;;;5096247;28;20204;-69
2022/07/30 08:52:33;;;;;;;2.30;2.20;;;;;;;;;;5095970;28;20204;-70
2022/07/30 08:55:02;;;;;;;2.33;2.22;;;;;;;;;;5096386;28;20572;-70
2022/07/30 08:57:30;;;;;;;2.50;2.40;;;;;;;;;;5095846;28;20199;-70
2022/07/30 08:59:57;;;;;;;2.40;2.30;;;;;;;;;;5096907;28;20707;-70
2022/07/30 09:02:25;;;;;;;2.40;2.30;;;;;;;;;;5096400;28;20204;-70
2022/07/30 09:04:52;;;;;;;2.38;2.28;;;;;;;;;;5096150;28;20650;-70
2022/07/30 09:07:20;;;;;;;2.20;2.10;;;;;;;;;;5095642;28;20225;-70
2022/07/30 09:09:47;;;;;;;2.22;2.13;;;;;;;;;;5095945;28;20306;-69
2022/07/30 09:12:34;;;;;;;2.10;2.00;;;;;;;;;;5094871;28;20233;-70
2022/07/30 09:15:02;;;;;;;2.20;2.10;;;;;;;;;;5095986;28;20618;-70
2022/07/30 09:17:29;;;;;;;2.40;2.20;;;;;;;;;;5095721;28;20204;-70
2022/07/30 09:20:06;;;;;;;2.50;2.30;;;;;;;;;;5096184;28;20276;-70
2022/07/30 09:22:42;;;;;;;2.30;2.20;;;;;;;;;;5095661;28;20199;-70
2022/07/30 09:25:09;;;;;;;2.60;2.50;;;;;;;;;;5096191;28;20310;-70
2022/07/30 09:27:45;;;;;;;2.67;2.47;;;;;;;;;;5095278;28;20207;-70
2022/07/30 09:30:13;;;;;;;2.17;2.08;;;;;;;;;;5095703;28;20322;-70
2022/07/30 09:32:50;;;;;;;2.13;2.03;;;;;;;;;;5094179;28;20556;-70
2022/07/30 09:35:18;;;;;;;2.42;2.30;;;;;;;;;;5094646;28;20231;-70
2022/07/30 09:37:46;;;;;;;2.33;2.20;;;;;;;;;;5094021;28;20738;-70
2022/07/30 09:40:15;;;;;;;2.40;2.30;;;;;;;;;;5095233;28;20618;-70
2022/07/30 09:42:42;;;;;;;2.53;2.30;;;;;;;;;;5093995;28;20227;-70
2022/07/30 09:45:12;;;;;;;2.60;2.40;;;;;;;;;;5095593;28;20580;-70
2022/07/30 09:47:41;;;;;;;2.60;2.40;;;;;;;;;;5094130;28;20231;-70
2022/07/30 09:50:09;;;;;;;2.30;2.20;;;;;;;;;;5095389;28;20588;-69
2022/07/30 09:52:37;;;;;;;2.67;2.47;;;;;;;;;;5093688;28;20220;-70
2022/07/30 09:55:05;;;;;;;2.95;2.25;;;;;;;;;;5094110;28;20349;-70
2022/07/30 09:57:32;;;;;;;2.40;2.30;;;;;;;;;;5093572;28;20288;-70
2022/07/30 10:00:16;;;;;;;2.38;2.28;;;;;;;;;;5094337;28;20228;-70
2022/07/30 10:02:46;;;;;;;2.38;2.28;;;;;;;;;;5093652;28;20232;-70
2022/07/30 10:05:15;;;;;;;2.47;2.38;;;;;;;;;;5094480;28;20223;-70
2022/07/30 10:07:49;;;;;;;2.40;2.30;;;;;;;;;;5093791;28;20228;-70
2022/07/30 10:10:17;;;;;;;2.28;2.17;;;;;;;;;;5093744;28;20243;-70
2022/07/30 10:12:45;;;;;;;2.70;2.50;;;;;;;;;;5093890;28;20242;-70
2022/07/30 10:15:14;;;;;;;2.17;2.08;;;;;;;;;;5094400;28;20576;-70
2022/07/30 10:17:42;;;;;;;2.58;2.38;;;;;;;;;;5093161;28;20223;-70
2022/07/30 10:20:11;;;;;;;2.45;2.35;;;;;;;;;;5092751;28;20312;-70
2022/07/30 10:22:39;;;;;;;2.70;2.50;;;;;;;;;;5093389;28;20320;-70
2022/07/30 10:25:06;;;;;;;2.17;2.08;;;;;;;;;;5093662;28;20227;-70
2022/07/30 10:27:34;;;;;;;2.47;2.38;;;;;;;;;;5093104;28;20224;-70
2022/07/30 10:30:02;;;;;;;2.45;2.25;;;;;;;;;;5093629;28;20303;-70
2022/07/30 10:32:29;;;;;;;2.38;2.20;;;;;;;;;;5092867;28;20280;-69
2022/07/30 10:34:56;;;;;;;2.70;2.50;;;;;;;;;;5093558;28;20238;-70
2022/07/30 10:37:26;;;;;;;2.40;2.30;;;;;;;;;;5093347;28;20227;-70
2022/07/30 10:39:55;;;;;;;2.70;2.55;;;;;;;;;;5094503;28;20292;-70
2022/07/30 10:42:28;;;;;;;2.45;2.35;;;;;;;;;;5092792;28;20627;-69
2022/07/30 10:45:21;;;;;;;2.70;2.50;;;;;;;;;;5094575;28;20223;-70
2022/07/30 10:47:49;;;;;;;2.28;2.10;;;;;;;;;;5077740;28;20323;-69
2022/07/30 10:50:18;;;;;;;2.95;2.70;;;;;;;;;;5098722;28;20234;-69
2022/07/30 10:52:51;;;;;;;2.80;2.60;;;;;;;;;;5098036;28;20223;-69
2022/07/30 10:55:20;;;;;;;2.55;2.45;;;;;;;;;;5098495;28;20222;-69
2022/07/30 10:58:01;;;;;;;2.85;2.65;;;;;;;;;;5098289;28;20238;-70
2022/07/30 11:00:28;;;;;;;2.72;2.53;;;;;;;;;;5098162;28;20284;-69
2022/07/30 11:03:15;;;;;;;2.92;2.75;;;;;;;;;;5098046;28;20288;-69
2022/07/30 11:05:43;;;;;;;3.15;2.95;;;;;;;;;;5098537;28;20230;-69
2022/07/30 11:08:30;;;;;;;2.90;2.70;;;;;;;;;;5098093;28;20227;-69
2022/07/30 11:10:57;;;;;;;3.35;3.15;;;;;;;;;;5077022;28;20228;-69
2022/07/30 11:13:40;;;;;;;3.50;3.10;;;;;;;;;;5076852;28;20220;-69
2022/07/30 11:16:07;;;;;;;3.30;3.10;;;;;;;;;;5077392;28;20311;-69
2022/07/30 11:18:54;;;;;;;3.53;3.33;;;;;;;;;;5077320;28;20278;-69
2022/07/30 11:21:22;;;;;;;3.20;3.00;;;;;;;;;;5077723;28;20236;-69
2022/07/30 11:23:52;;;;;;;3.92;3.63;;;;;;;;;;5077201;28;20686;-69
2022/07/30 11:26:37;;;;;;;3.72;3.40;;;;;;;;;;5077382;28;20577;-69
2022/07/30 11:29:05;;;;;;;4.20;3.90;;;;;;;;;;5077550;28;20507;-69
2022/07/30 11:31:33;;;;;;;3.90;3.70;;;;;;;;;;5077520;28;20250;-69
2022/07/30 11:34:19;;;;;;;3.60;3.40;;;;;;;;;;5076036;28;20224;-69
2022/07/30 11:37:01;;;;;;;3.92;3.63;;;;;;;;;;5075953;28;20224;-69
2022/07/30 11:40:03;;;;;;;4.18;3.97;;;;;;;;;;5055654;28;20236;-69
2022/07/30 11:42:31;;;;;;;3.53;3.33;;;;;;;;;;5069175;28;20639;-69
2022/07/30 11:45:22;;;;;;;4.10;3.80;;;;;;;;;;5077096;28;20640;-69
2022/07/30 11:47:50;;;;;;;3.97;3.70;;;;;;;;;;5075926;28;20488;-69
2022/07/30 11:50:18;;;;;;;4.38;3.97;;;;;;;;;;5076319;28;20220;-70
2022/07/30 11:52:49;;;;;;;4.25;3.95;;;;;;;;;;5074809;28;20230;-70
2022/07/30 11:55:24;;;;;;;4.20;3.90;;;;;;;;;;5074989;28;20278;-70
2022/07/30 11:57:52;;;;;;;4.50;4.20;;;;;;;;;;5075651;28;20341;-70
2022/07/30 12:00:19;;;;;;;4.35;4.05;;;;;;;;;;5074680;28;20242;-70
2022/07/30 12:02:48;;;;;;;4.47;4.18;;;;;;;;;;5075287;28;20651;-70
2022/07/30 12:05:15;;;;;;;4.30;4.00;;;;;;;;;;5075274;28;20230;-70
2022/07/30 12:07:43;;;;;;;4.50;4.20;;;;;;;;;;5075422;28;20228;-69
2022/07/30 12:10:14;;;;;;;4.13;3.92;;;;;;;;;;5089964;28;20231;-69
2022/07/30 12:12:43;;;;;;;4.35;4.15;;;;;;;;;;5094547;28;20227;-69
2022/07/30 12:15:11;;;;;;;4.47;4.15;;;;;;;;;;5096418;28;20379;-69
2022/07/30 12:17:42;;;;;;;4.22;3.92;;;;;;;;;;5097039;28;20835;-69
2022/07/30 12:20:16;;;;;;;4.50;4.18;;;;;;;;;;5096175;28;20797;-69
2022/07/30 12:22:43;;;;;;;4.32;4.07;;;;;;;;;;5096559;28;20215;-69
2022/07/30 12:25:11;;;;;;;4.40;4.10;;;;;;;;;;5096532;28;20239;-69
2022/07/30 12:27:38;;;;;;;4.13;3.92;;;;;;;;;;5096311;28;20228;-69
2022/07/30 12:30:09;;;;;;;4.60;4.30;;;;;;;;;;5095454;28;20226;-69
2022/07/30 12:32:37;;;;;;;4.22;3.97;;;;;;;;;;5095271;28;20220;-69
2022/07/30 12:35:04;;;;;;;4.47;4.18;;;;;;;;;;5096330;28;20231;-69
2022/07/30 12:37:32;;;;;;;4.28;4.00;;;;;;;;;;5095420;28;20272;-69
2022/07/30 12:40:10;;;;;;;4.45;4.07;;;;;;;;;;5095942;28;20243;-69
2022/07/30 12:42:38;;;;;;;4.50;4.20;;;;;;;;;;5096229;28;20631;-70
2022/07/30 12:45:08;;;;;;;4.10;3.80;;;;;;;;;;5096609;28;20318;-70
2022/07/30 12:47:35;;;;;;;4.30;4.00;;;;;;;;;;5096254;28;20269;-70
2022/07/30 12:50:16;;;;;;;4.00;3.80;;;;;;;;;;5096026;28;20231;-70
2022/07/30 12:52:48;;;;;;;4.25;3.95;;;;;;;;;;5095039;28;20222;-69
2022/07/30 12:55:16;;;;;;;4.20;3.90;;;;;;;;;;5095139;28;20227;-69
2022/07/30 12:57:53;;;;;;;4.00;3.80;;;;;;;;;;5094899;28;20242;-69
2022/07/30 13:00:22;;;;;;;3.65;3.45;;;;;;;;;;5096049;28;20633;-69
2022/07/30 13:02:49;;;;;;;3.70;3.50;;;;;;;;;;5094946;28;20227;-69
2022/07/30 13:05:16;;;;;;;4.03;3.83;;;;;;;;;;5095520;28;20238;-69
2022/07/30 13:07:54;;;;;;;3.70;3.50;;;;;;;;;;5095302;28;20227;-69
2022/07/30 13:10:21;;;;;;;3.72;3.42;;;;;;;;;;5095142;28;20228;-69
2022/07/30 13:12:48;;;;;;;3.70;3.50;;;;;;;;;;5093960;28;20528;-69
2022/07/30 13:15:18;;;;;;;3.80;3.60;;;;;;;;;;5096400;28;20257;-69
2022/07/30 13:17:47;;;;;;;3.50;3.30;;;;;;;;;;5094467;28;20249;-69
2022/07/30 13:20:15;;;;;;;3.90;3.70;;;;;;;;;;5094918;28;20614;-69
2022/07/30 13:22:42;;;;;;;3.42;3.22;;;;;;;;;;5094550;28;20188;-70
2022/07/30 13:25:10;;;;;;;3.80;3.50;;;;;;;;;;5095501;28;20263;-69
2022/07/30 13:27:38;;;;;;;3.78;3.58;;;;;;;;;;5095245;28;20210;-69
2022/07/30 13:30:06;;;;;;;3.45;3.25;;;;;;;;;;5096042;28;20735;-69
2022/07/30 13:32:33;;;;;;;3.88;3.58;;;;;;;;;;5094331;28;20195;-69
2022/07/30 13:35:02;;;;;;;3.38;3.17;;;;;;;;;;5095673;28;20571;-69
2022/07/30 13:37:29;;;;;;;3.67;3.47;;;;;;;;;;5095023;28;20199;-69
2022/07/30 13:39:57;;;;;;;3.80;3.60;;;;;;;;;;5094978;28;20269;-69
2022/07/30 13:42:24;;;;;;;3.50;3.30;;;;;;;;;;5095029;28;20196;-69
2022/07/30 13:44:52;;;;;;;3.80;3.60;;;;;;;;;;5094670;28;20203;-69
2022/07/30 13:47:19;;;;;;;3.90;3.70;;;;;;;;;;5095100;28;20260;-69
2022/07/30 13:49:48;;;;;;;3.80;3.50;;;;;;;;;;5095617;28;20184;-69
2022/07/30 13:52:17;;;;;;;3.83;3.63;;;;;;;;;;5094740;28;20206;-69
2022/07/30 13:54:45;;;;;;;4.32;4.03;;;;;;;;;;5095020;28;20214;-69
2022/07/30 13:57:12;;;;;;;3.83;3.63;;;;;;;;;;5095400;28;20207;-69
2022/07/30 13:59:40;;;;;;;4.25;4.00;;;;;;;;;;5095101;28;20243;-69
2022/07/30 14:02:09;;;;;;;3.80;3.50;;;;;;;;;;5094158;28;20280;-69
2022/07/30 14:04:36;;;;;;;4.57;4.28;;;;;;;;;;5094066;28;20219;-69
2022/07/30 14:07:04;;;;;;;4.32;4.03;;;;;;;;;;5094283;28;20222;-69
2022/07/30 14:09:33;;;;;;;4.43;4.13;;;;;;;;;;5094482;28;20289;-69
2022/07/30 14:12:00;;;;;;;4.43;4.20;;;;;;;;;;5093966;28;20231;-69
2022/07/30 14:14:27;;;;;;;4.75;4.45;;;;;;;;;;5094178;28;20231;-69
2022/07/30 14:16:54;;;;;;;5.03;4.72;;;;;;;;;;5093644;28;20220;-69
2022/07/30 14:19:22;;;;;;;5.35;5.05;;;;;;;;;;5093754;28;20231;-69
2022/07/30 14:21:49;;;;;;;5.00;4.70;;;;;;;;;;5093629;28;20360;-69
2022/07/30 14:24:16;;;;;;;4.90;4.60;;;;;;;;;;5094401;28;20224;-69
2022/07/30 14:26:45;;;;;;;4.43;4.22;;;;;;;;;;5094509;28;20231;-69
2022/07/30 14:29:12;;;;;;;5.15;4.85;;;;;;;;;;5094549;28;20223;-69
2022/07/30 14:31:40;;;;;;;4.75;4.45;;;;;;;;;;5092989;28;20227;-69
2022/07/30 14:34:07;;;;;;;4.35;4.07;;;;;;;;;;5093156;28;20315;-69
2022/07/30 14:36:36;;;;;;;4.80;4.50;;;;;;;;;;5093913;28;20220;-69
2022/07/30 14:39:03;;;;;;;4.00;3.80;;;;;;;;;;5093413;28;20228;-69
2022/07/30 14:41:31;;;;;;;4.97;4.68;;;;;;;;;;5093769;28;20682;-69
2022/07/30 14:43:59;;;;;;;4.65;4.35;;;;;;;;;;5092992;28;20223;-69
2022/07/30 14:46:27;;;;;;;5.07;4.60;;;;;;;;;;5094327;28;20219;-69
2022/07/30 14:48:54;;;;;;;5.38;5.07;;;;;;;;;;5092194;28;20284;-69
2022/07/30 14:51:21;;;;;;;5.00;4.70;;;;;;;;;;5092684;28;20220;-69
2022/07/30 14:53:49;;;;;;;5.10;4.80;;;;;;;;;;5092054;28;20280;-69
2022/07/30 14:56:16;;;;;;;4.75;4.45;;;;;;;;;;5092690;28;20232;-69